Popsquash, Vermont
Current Conditions -  °F | °C
As of 3:15 AM on Tuesday 27 Jan 2015 (Local Time) from KFSO Reporting Station
Clear Clear  
Wind Chill: -6°   Ceiling: Unl
Heat Index:   Visibility: 10mi
Dew Point: -4°   Wind: 6mph
Humidity: 68%   Direction: 350°N
Pressure: 30.01"   Gusts: NA
Location:  44.9002°N, 73.1493°W
Report Text: KFSO 270815Z AUTO 35005KT 10SM CLR M15/M20 A3001 RMK AO2 T11511198
Loading
Personal Weather Stations






























Interactive Weather Map New forecast layout! Learn more

10-Day Weather Forecast

Advertisements
Track Severe Weather on mobile